Time;durP1;ratioP1;P1;durP2;ratioP2;P2;SDS_P1;SDS_P2;PMS_P1;PMS_P2;Temp;Humidity;BMP_temperature;BMP_pressure;BME280_temperature;BME280_humidity;BME280_pressure;Samples;Min_cycle;Max_cycle;Signal;HPM_P1;HPM_P2
2022/03/02 08:14:40;;;;;;;12.23;8.77;;;;;;;;;;12833509;22;1594587;-80
2022/03/02 08:19:43;;;;;;;13.48;9.30;;;;;;;;;;12856717;23;20027;-82
2022/03/02 08:24:47;;;;;;;12.00;8.52;;;;;;;;;;12853488;23;20004;-81
2022/03/02 08:29:56;;;;;;;11.88;9.10;;;;;;;;;;12858777;23;20032;-81
2022/03/02 08:34:57;;;;;;;15.10;10.27;;;;;;;;;;12852397;23;20051;-80
2022/03/02 08:39:58;;;;;;;;;;;;;;;;;;12857919;23;20496;-81
2022/03/02 08:44:59;;;;;;;14.77;10.07;;;;;;;;;;12855163;23;19931;-81
2022/03/02 08:50:03;;;;;;;14.18;10.15;;;;;;;;;;12854368;23;20483;-81
2022/03/02 08:55:11;;;;;;;15.35;10.68;;;;;;;;;;12853903;23;20347;-81
2022/03/02 09:00:15;;;;;;;13.98;10.77;;;;;;;;;;12824461;23;20107;-82
2022/03/02 09:05:18;;;;;;;12.70;9.85;;;;;;;;;;12856108;23;20011;-82
2022/03/02 09:10:24;;;;;;;13.80;10.23;;;;;;;;;;12851947;23;20008;-82
2022/03/02 09:15:26;;;;;;;11.35;9.00;;;;;;;;;;12848372;23;20020;-82
2022/03/02 09:20:30;;;;;;;10.30;8.00;;;;;;;;;;12824474;23;20008;-82
2022/03/02 09:25:32;;;;;;;16.35;11.18;;;;;;;;;;12851426;23;20008;-83
2022/03/02 09:30:38;;;;;;;14.52;10.60;;;;;;;;;;12849657;23;20039;-83
2022/03/02 09:35:46;;;;;;;11.65;9.23;;;;;;;;;;12875439;23;20001;-82
2022/03/02 09:40:49;;;;;;;9.15;7.82;;;;;;;;;;12845824;23;20012;-83
2022/03/02 09:45:51;;;;;;;12.90;10.13;;;;;;;;;;12846513;23;20147;-82
2022/03/02 09:51:05;;;;;;;15.95;12.23;;;;;;;;;;12845797;23;20337;-82
2022/03/02 09:56:17;;;;;;;16.73;10.82;;;;;;;;;;12848282;23;20004;-82
2022/03/02 10:01:21;;;;;;;10.10;6.78;;;;;;;;;;12877129;23;20032;-78
2022/03/02 10:06:24;;;;;;;9.50;7.88;;;;;;;;;;12874798;23;20004;-81
2022/03/02 10:11:27;;;;;;;10.07;8.13;;;;;;;;;;12825449;23;20050;-82
2022/03/02 10:16:30;;;;;;;12.50;9.88;;;;;;;;;;12848487;23;20373;-81
2022/03/02 10:21:34;;;;;;;11.48;9.30;;;;;;;;;;12891074;23;20456;-82
2022/03/02 10:26:42;;;;;;;12.38;9.23;;;;;;;;;;12868330;23;20055;-82
2022/03/02 10:31:53;;;;;;;11.35;9.93;;;;;;;;;;12876559;23;20004;-82
2022/03/02 10:37:09;;;;;;;10.60;8.35;;;;;;;;;;12846827;23;20087;-81
2022/03/02 10:42:17;;;;;;;11.25;9.32;;;;;;;;;;12870958;23;20011;-81
2022/03/02 10:47:23;;;;;;;11.68;8.85;;;;;;;;;;12850120;23;20004;-80
2022/03/02 10:52:25;;;;;;;11.43;8.70;;;;;;;;;;12847279;23;20039;-81
2022/03/02 10:57:27;;;;;;;10.65;8.00;;;;;;;;;;12846317;23;20333;-81
2022/03/02 11:02:29;;;;;;;12.98;8.43;;;;;;;;;;12857438;23;20001;-82
2022/03/02 11:07:54;;;;;;;12.50;7.90;;;;;;;;;;12852167;23;20005;-83
2022/03/02 11:13:14;;;;;;;16.38;8.43;;;;;;;;;;12873433;23;20087;-83
2022/03/02 11:18:19;;;;;;;11.10;9.63;;;;;;;;;;12874837;23;20013;-82
2022/03/02 11:23:26;;;;;;;11.05;9.13;;;;;;;;;;12850706;23;20442;-82
2022/03/02 11:28:51;;;;;;;8.77;6.60;;;;;;;;;;12875736;23;20001;-82
2022/03/02 11:33:52;;;;;;;8.48;7.55;;;;;;;;;;12853366;23;20035;-81
2022/03/02 11:39:03;;;;;;;8.75;7.13;;;;;;;;;;12855926;23;20000;-83
2022/03/02 11:44:05;;;;;;;9.13;7.82;;;;;;;;;;12856071;23;20004;-82
2022/03/02 11:49:08;;;;;;;8.00;6.70;;;;;;;;;;12858329;23;20047;-81
2022/03/02 11:54:40;;;;;;;8.77;7.13;;;;;;;;;;12883012;23;20000;-81
2022/03/02 11:59:44;;;;;;;11.73;8.90;;;;;;;;;;12842653;23;20035;-81
2022/03/02 12:05:01;;;;;;;15.57;9.02;;;;;;;;;;12871145;23;20020;-80
2022/03/02 12:10:03;;;;;;;13.45;11.18;;;;;;;;;;12844803;23;20027;-80
2022/03/02 12:15:05;;;;;;;7.55;6.35;;;;;;;;;;12845439;23;20027;-80
2022/03/02 12:20:14;;;;;;;10.73;8.18;;;;;;;;;;12844881;23;20005;-81
2022/03/02 12:25:19;;;;;;;10.48;8.02;;;;;;;;;;12845800;23;20092;-81
2022/03/02 12:30:21;;;;;;;8.35;6.38;;;;;;;;;;12844230;23;20039;-81
2022/03/02 12:35:23;;;;;;;8.35;6.57;;;;;;;;;;12845334;23;20063;-81
2022/03/02 12:40:26;;;;;;;7.72;6.30;;;;;;;;;;12843746;23;20000;-81
2022/03/02 12:45:27;;;;;;;11.55;8.07;;;;;;;;;;12845100;23;20012;-81
2022/03/02 12:50:29;;;;;;;;;;;;;;;;;;12871790;23;20032;-81
2022/03/02 12:55:30;;;;;;;10.63;7.93;;;;;;;;;;12844154;23;19914;-81
2022/03/02 13:00:31;;;;;;;8.38;6.90;;;;;;;;;;12871476;23;20092;-80
2022/03/02 13:05:42;;;;;;;12.35;8.45;;;;;;;;;;12845581;23;20016;-80
2022/03/02 13:10:44;;;;;;;10.45;8.48;;;;;;;;;;12870797;23;20007;-80
2022/03/02 13:15:47;;;;;;;10.02;7.80;;;;;;;;;;12844842;23;20008;-80
2022/03/02 13:20:49;;;;;;;12.88;9.50;;;;;;;;;;12843250;23;20484;-81
2022/03/02 13:25:59;;;;;;;8.52;6.80;;;;;;;;;;12843077;23;20000;-82
2022/03/02 13:31:14;;;;;;;8.77;6.80;;;;;;;;;;12844393;23;20084;-80
2022/03/02 13:36:31;;;;;;;13.50;10.80;;;;;;;;;;12841512;23;20332;-80
2022/03/02 13:41:58;;;;;;;8.88;6.68;;;;;;;;;;12840140;23;20004;-81
2022/03/02 13:47:10;;;;;;;14.10;8.55;;;;;;;;;;12860360;23;20013;-80
2022/03/02 13:52:12;;;;;;;9.80;8.20;;;;;;;;;;12868364;23;20004;-81
2022/03/02 13:57:23;;;;;;;8.95;7.28;;;;;;;;;;12868965;23;20401;-81
2022/03/02 14:02:24;;;;;;;28.10;22.02;;;;;;;;;;12870689;23;20004;-81
2022/03/02 14:07:30;;;;;;;9.55;7.63;;;;;;;;;;12843348;23;20322;-81
2022/03/02 14:12:32;;;;;;;12.10;8.88;;;;;;;;;;12843275;23;20040;-80
2022/03/02 14:17:35;;;;;;;12.68;8.70;;;;;;;;;;12871092;23;20031;-79
2022/03/02 14:22:36;;;;;;;10.32;8.27;;;;;;;;;;12839880;23;20005;-82
2022/03/02 14:27:37;;;;;;;8.52;6.75;;;;;;;;;;12839543;23;20004;-79
2022/03/02 14:32:40;;;;;;;8.65;6.57;;;;;;;;;;12844040;23;20001;-80
2022/03/02 14:37:43;;;;;;;9.50;7.82;;;;;;;;;;12869509;23;20067;-81
2022/03/02 14:42:46;;;;;;;8.95;6.65;;;;;;;;;;12842301;23;20028;-81
2022/03/02 14:47:52;;;;;;;9.80;8.02;;;;;;;;;;12842017;23;20028;-81
2022/03/02 14:52:57;;;;;;;11.73;9.85;;;;;;;;;;12842044;23;20442;-81
2022/03/02 14:57:59;;;;;;;9.38;8.15;;;;;;;;;;12867558;23;20008;-80
2022/03/02 15:03:00;;;;;;;9.10;7.22;;;;;;;;;;12842128;23;20437;-80
2022/03/02 15:08:01;;;;;;;7.63;6.47;;;;;;;;;;12841882;23;20013;-80
2022/03/02 15:18:22;;;;;;;13.45;10.10;;;;;;;;;;12875668;23;20017;-78
2022/03/02 15:23:27;;;;;;;11.30;8.80;;;;;;;;;;12847379;23;20004;-81
2022/03/02 15:28:28;;;;;;;9.18;7.30;;;;;;;;;;12852707;23;20007;-82
2022/03/02 15:33:30;;;;;;;7.18;5.07;;;;;;;;;;12847139;23;20056;-81
2022/03/02 15:38:35;;;;;;;7.57;5.72;;;;;;;;;;12871904;23;20008;-82
2022/03/02 15:43:41;;;;;;;8.45;6.53;;;;;;;;;;12873803;23;20436;-82
2022/03/02 15:48:43;;;;;;;9.30;6.45;;;;;;;;;;12854539;23;20383;-81
2022/03/02 15:53:44;;;;;;;7.53;6.35;;;;;;;;;;12870694;23;19996;-81
2022/03/02 15:58:49;;;;;;;9.35;6.40;;;;;;;;;;12844763;23;20027;-81
2022/03/02 16:03:56;;;;;;;9.13;5.90;;;;;;;;;;12844506;23;20467;-83
2022/03/02 16:09:11;;;;;;;6.78;5.63;;;;;;;;;;12846836;23;20039;-82
2022/03/02 16:14:15;;;;;;;7.82;5.35;;;;;;;;;;12846931;23;20345;-83
2022/03/02 16:19:17;;;;;;;5.95;5.07;;;;;;;;;;12845994;23;20031;-82
2022/03/02 16:24:30;;;;;;;6.20;5.15;;;;;;;;;;12857000;22;20012;-83
2022/03/02 16:29:31;;;;;;;7.05;5.78;;;;;;;;;;12849808;23;20018;-81
2022/03/02 16:34:38;;;;;;;7.57;6.25;;;;;;;;;;12848760;23;20004;-80
2022/03/02 16:39:40;;;;;;;7.55;5.80;;;;;;;;;;12845105;23;20011;-81
2022/03/02 16:44:45;;;;;;;7.10;6.13;;;;;;;;;;12845438;23;20012;-81
2022/03/02 16:49:59;;;;;;;8.63;6.20;;;;;;;;;;12865554;23;20000;-80
2022/03/02 16:55:26;;;;;;;6.80;6.00;;;;;;;;;;12899514;22;19996;-79
2022/03/02 17:00:37;;;;;;;8.75;6.15;;;;;;;;;;12863914;23;20504;-81
2022/03/02 17:05:39;;;;;;;8.90;7.65;;;;;;;;;;12853202;23;20448;-81
2022/03/02 17:10:44;;;;;;;8.48;6.60;;;;;;;;;;12859233;23;20070;-80
2022/03/02 17:15:51;;;;;;;10.40;7.13;;;;;;;;;;12889116;23;20005;-81
2022/03/02 17:21:01;;;;;;;9.48;7.22;;;;;;;;;;12855222;23;20011;-83
2022/03/02 17:26:02;;;;;;;8.17;7.27;;;;;;;;;;12833445;23;20128;-82
2022/03/02 17:31:06;;;;;;;7.97;7.15;;;;;;;;;;12864272;23;19985;-85
2022/03/02 17:36:08;;;;;;;8.65;7.20;;;;;;;;;;12869652;23;20000;-85
2022/03/02 17:41:09;;;;;;;8.35;6.97;;;;;;;;;;12867428;23;20004;-84
2022/03/02 17:46:11;;;;;;;9.13;7.32;;;;;;;;;;12864245;23;20062;-84
2022/03/02 17:51:12;;;;;;;8.95;7.45;;;;;;;;;;12868648;23;20000;-84
2022/03/02 17:56:13;;;;;;;7.38;6.57;;;;;;;;;;12860573;23;20004;-84
2022/03/02 18:01:14;;;;;;;8.05;5.97;;;;;;;;;;12871534;23;20012;-85
